Air Navigation Services of Czech Republic
Airport: LKKV Updated:  20.01.2017 20:06:13  UTC
 METAR LKKV 20.01. 20:00 ...
METAR LKKV 202000Z 11003KT CAVOK M06/M12 Q1031 R29/////// RMK REG QNH 1028=
 TAF LKKV 20.01. 17:00 ...
TAF LKKV 201700Z 2018/2200 VRB02KT CAVOK=